Time;durP1;ratioP1;P1;durP2;ratioP2;P2;SDS_P1;SDS_P2;PMS_P1;PMS_P2;Temp;Humidity;BMP_temperature;BMP_pressure;BME280_temperature;BME280_humidity;BME280_pressure;Samples;Min_cycle;Max_cycle;Signal;HPM_P1;HPM_P2
2022/01/23 00:00:42;;;;;;;17.55;5.70;;;;;;;-3.47;100.00;99781.31;4357475;32;20048;-76
2022/01/23 00:03:17;;;;;;;24.15;5.57;;;;;;;-3.73;100.00;99746.84;4356595;32;20066;-76
2022/01/23 00:05:46;;;;;;;29.40;7.10;;;;;;;-3.49;100.00;99772.72;4358464;32;20057;-76
2022/01/23 00:08:17;;;;;;;28.12;7.57;;;;;;;-3.68;100.00;99746.44;4358171;32;20083;-76
2022/01/23 00:10:44;;;;;;;18.73;7.03;;;;;;;-3.51;100.00;99784.34;4356488;32;20438;-77
2022/01/23 00:13:17;;;;;;;22.80;7.30;;;;;;;-3.49;100.00;99775.34;4356366;32;20358;-77
2022/01/23 00:18:29;;;;;;;24.37;6.20;;;;;;;-3.80;100.00;99734.37;4355645;32;20035;-77
2022/01/23 00:20:55;;;;;;;23.48;7.28;;;;;;;-3.53;100.00;99770.50;4355887;32;20069;-75
2022/01/23 00:31:27;;;;;;;28.08;7.97;;;;;;;-3.48;100.00;99749.84;4355861;32;20028;-75
2022/01/23 00:33:55;;;;;;;27.55;6.55;;;;;;;-3.75;100.00;99711.94;4354789;32;20065;-75
2022/01/23 00:36:22;;;;;;;13.45;5.43;;;;;;;-3.50;100.00;99751.78;4355238;32;20081;-75
2022/01/23 00:38:49;;;;;;;19.85;5.97;;;;;;;-3.79;100.00;99710.56;4355728;32;20035;-75
2022/01/23 00:41:16;;;;;;;12.57;5.60;;;;;;;-3.61;100.00;99749.31;4357699;32;20065;-75
2022/01/23 00:43:44;;;;;;;16.75;5.72;;;;;;;-3.78;100.00;99711.37;4355212;32;20373;-76
2022/01/23 00:49:13;;;;;;;13.88;5.25;;;;;;;-3.57;100.00;99750.72;4357527;32;20051;-76
2022/01/23 00:51:37;;;;;;;13.35;5.53;;;;;;;-3.57;100.00;99755.97;4355756;32;20434;-77
2022/01/23 00:54:10;;;;;;;16.52;6.03;;;;;;;-3.57;100.00;99755.97;4356642;32;20044;-77
2022/01/23 00:56:37;;;;;;;24.65;6.62;;;;;;;-3.82;100.00;99726.63;4356507;32;20075;-76
2022/01/23 00:59:04;;;;;;;23.85;5.55;;;;;;;-3.64;100.00;99750.41;4355795;32;20040;-76
2022/01/23 01:01:31;;;;;;;12.90;5.28;;;;;;;-3.69;100.00;99757.91;4356588;32;20082;-76
2022/01/23 01:03:59;;;;;;;12.02;4.60;;;;;;;-3.88;100.00;99728.03;4356015;32;20132;-76
2022/01/23 01:06:25;;;;;;;27.92;6.72;;;;;;;-3.67;100.00;99751.56;4355875;32;20053;-76
2022/01/23 01:08:55;;;;;;;24.17;5.93;;;;;;;-3.66;100.00;99747.94;4357068;32;20069;-76
2022/01/23 01:30:43;;;;;;;16.40;5.40;;;;;;;-3.81;100.00;99765.13;4340312;33;20071;-76
2022/01/23 01:36:19;;;;;;;16.50;5.78;;;;;;;-4.11;100.00;99719.56;4349182;33;20048;-76
2022/01/23 01:38:47;;;;;;;27.95;6.47;;;;;;;-3.83;100.00;99772.31;4354303;32;20035;-76
2022/01/23 01:41:21;;;;;;;18.65;5.30;;;;;;;-3.88;100.00;99774.53;4356479;32;20085;-76
2022/01/23 01:43:49;;;;;;;26.90;6.87;;;;;;;-3.91;100.00;99769.56;4356890;32;20163;-76
2022/01/23 01:46:17;;;;;;;33.53;6.28;;;;;;;-3.82;100.00;99779.25;4355922;32;20036;-76
2022/01/23 01:48:44;;;;;;;20.10;5.87;;;;;;;-3.80;100.00;99787.00;4352868;32;20094;-76
2022/01/23 01:51:15;;;;;;;18.52;5.70;;;;;;;-3.83;100.00;99782.84;4355157;32;20089;-75
2022/01/23 01:53:49;;;;;;;18.07;5.77;;;;;;;-3.83;100.00;99793.38;4356203;32;20040;-77
2022/01/23 01:56:18;;;;;;;17.10;6.05;;;;;;;-4.06;100.00;99751.53;4353733;32;20083;-78
2022/01/23 02:09:28;;;;;;;30.05;6.78;;;;;;;-3.91;100.00;99766.91;4356468;32;20400;-76
2022/01/23 02:17:26;;;;;;;26.70;6.35;;;;;;;-3.87;100.00;99765.69;4340640;33;20141;-76
2022/01/23 02:52:47;;;;;;;27.20;6.15;;;;;;;-4.20;100.00;99749.31;4354134;32;20105;-78
2022/01/23 02:55:20;;;;;;;13.57;5.55;;;;;;;-4.39;100.00;99735.19;4355805;32;20054;-78
2022/01/23 03:00:18;;;;;;;26.25;7.20;;;;;;;-4.16;100.00;99782.28;4353655;32;20035;-77
2022/01/23 03:02:52;;;;;;;24.08;6.53;;;;;;;-4.39;100.00;99740.47;4355320;32;20388;-78
2022/01/23 03:10:40;;;;;;;21.00;6.90;;;;;;;-4.18;100.00;99784.19;4354507;32;20039;-77
2022/01/23 03:24:24;;;;;;;20.35;6.80;;;;;;;-4.19;100.00;99798.34;4353960;32;20503;-77
2022/01/23 03:29:23;;;;;;;18.92;7.32;;;;;;;-4.20;100.00;99791.41;4355219;32;20044;-77
2022/01/23 03:34:23;;;;;;;19.50;7.53;;;;;;;-4.47;100.00;99745.53;4354869;32;20066;-78
2022/01/23 03:36:51;;;;;;;17.98;6.25;;;;;;;-4.43;100.00;99754.00;4355538;32;20181;-77
2022/01/23 03:39:18;;;;;;;17.85;6.53;;;;;;;-4.21;100.00;99789.75;4354089;32;20082;-78
2022/01/23 03:41:45;;;;;;;20.00;6.60;;;;;;;-4.30;100.00;99780.03;4340096;33;20058;-76
2022/01/23 03:44:15;;;;;;;17.35;6.37;;;;;;;-4.19;100.00;99803.59;4353928;32;20066;-78
2022/01/23 03:47:15;;;;;;;26.15;7.25;;;;;;;-4.43;100.00;99760.09;4351489;32;20960;-77
2022/01/23 03:49:42;;;;;;;22.65;7.37;;;;;;;-4.21;100.00;99789.75;4349895;32;20036;-78
2022/01/23 03:54:45;;;;;;;23.20;6.22;;;;;;;-4.30;100.00;99796.66;4344410;32;20040;-77
2022/01/23 03:57:11;;;;;;;25.90;6.95;;;;;;;-4.22;100.00;99795.97;4355418;32;20069;-76
2022/01/23 03:59:38;;;;;;;19.20;6.53;;;;;;;-4.18;100.00;99823.66;4366288;32;20532;-77
2022/01/23 04:02:07;;;;;;;20.65;8.52;;;;;;;-4.18;100.00;99810.50;4353401;32;20057;-76
2022/01/23 04:07:19;;;;;;;18.37;7.45;;;;;;;-4.64;100.00;99746.19;4355176;33;20411;-77
2022/01/23 04:09:47;;;;;;;21.30;6.68;;;;;;;-4.19;100.00;99819.38;4351031;32;20066;-78
2022/01/23 04:20:49;;;;;;;24.10;8.05;;;;;;;-4.45;100.00;99780.44;4356328;32;20061;-76
2022/01/23 05:04:22;;;;;;;29.05;7.65;;;;;;;-4.07;100.00;99834.09;4357219;32;20040;-77
2022/01/23 05:07:01;;;;;;;24.48;8.05;;;;;;;-3.85;100.00;99853.22;4354892;32;20036;-77
2022/01/23 05:09:31;;;;;;;29.33;8.68;;;;;;;-3.95;100.00;99837.41;4356617;32;20061;-76
2022/01/23 05:12:02;;;;;;;31.20;8.48;;;;;;;-3.90;100.00;99834.37;4355046;32;20069;-76
2022/01/23 05:14:41;;;;;;;26.87;8.43;;;;;;;-3.83;100.00;99846.00;4355001;32;20065;-77
2022/01/23 05:17:11;;;;;;;23.33;7.25;;;;;;;-3.83;100.00;99853.91;4357083;32;20040;-76
2022/01/23 05:19:39;;;;;;;19.05;7.80;;;;;;;-3.99;100.00;99835.19;4356406;32;20608;-76
2022/01/23 05:24:57;;;;;;;30.58;8.10;;;;;;;-3.76;100.00;99873.44;4356424;32;20040;-76
2022/01/23 05:27:26;;;;;;;26.75;9.85;;;;;;;-4.08;100.00;99832.41;4355667;32;20082;-76
2022/01/23 05:29:55;;;;;;;37.50;11.52;;;;;;;-3.72;100.00;99872.22;4355664;32;20312;-77
2022/01/23 05:32:23;;;;;;;50.40;13.07;;;;;;;-3.91;100.00;99848.50;4355488;32;20061;-76
2022/01/23 05:34:50;;;;;;;35.72;11.23;;;;;;;-3.75;100.00;99880.38;4356363;32;20028;-76
2022/01/23 05:37:18;;;;;;;50.95;11.55;;;;;;;-4.01;100.00;99838.78;4356912;32;20112;-76
2022/01/23 05:39:44;;;;;;;33.47;9.13;;;;;;;-4.04;100.00;99823.28;4365608;32;20032;-77
2022/01/23 05:42:11;;;;;;;41.47;11.52;;;;;;;-3.63;100.00;99888.97;4355734;32;20059;-76
2022/01/23 05:44:42;;;;;;;39.83;10.70;;;;;;;-3.60;100.00;99885.25;4354362;32;20048;-77
2022/01/23 05:47:11;;;;;;;41.75;9.48;;;;;;;-3.63;100.00;99886.34;4356690;32;20061;-77
2022/01/23 05:49:39;;;;;;;44.92;12.93;;;;;;;-3.58;100.00;99891.19;4355301;32;20708;-76
2022/01/23 05:52:06;;;;;;;31.80;10.05;;;;;;;-3.81;100.00;99851.97;4353779;32;20040;-76
2022/01/23 05:54:34;;;;;;;22.40;7.03;;;;;;;-3.53;100.00;99895.06;4367136;32;20036;-77
2022/01/23 05:57:02;;;;;;;22.77;7.35;;;;;;;-3.81;100.00;99849.34;4355365;32;20046;-77
2022/01/23 05:59:31;;;;;;;22.08;7.87;;;;;;;-3.47;100.00;99909.50;4354045;32;20373;-77
2022/01/23 06:01:57;;;;;;;16.60;5.47;;;;;;;-3.45;100.00;99899.66;4354368;32;20076;-77
2022/01/23 06:04:38;;;;;;;16.27;5.75;;;;;;;-3.69;100.00;99858.75;4356150;32;20488;-77
2022/01/23 06:07:06;;;;;;;21.33;6.25;;;;;;;-3.39;100.00;99901.75;4356008;32;20062;-76
2022/01/23 06:09:37;;;;;;;20.58;6.03;;;;;;;-3.55;100.00;99864.59;4348820;32;20053;-76
2022/01/23 06:12:04;;;;;;;21.62;6.68;;;;;;;-3.38;100.00;99902.56;4360948;32;20434;-77
2022/01/23 06:14:31;;;;;;;16.17;6.12;;;;;;;-3.42;100.00;99912.56;4354354;32;20031;-76
2022/01/23 06:16:58;;;;;;;18.40;6.15;;;;;;;-3.38;100.00;99919.22;4355096;32;20065;-76
2022/01/23 06:19:32;;;;;;;23.40;7.20;;;;;;;-3.60;100.00;99887.88;4351891;32;20061;-76
2022/01/23 06:22:00;;;;;;;19.23;6.62;;;;;;;-3.59;100.00;99894.78;4354410;32;20357;-76
2022/01/23 06:24:30;;;;;;;21.73;6.18;;;;;;;-3.36;100.00;99922.53;4351623;32;20079;-77
2022/01/23 06:26:59;;;;;;;22.13;6.85;;;;;;;-3.35;100.00;99918.94;4355312;32;20036;-76
2022/01/23 06:29:30;;;;;;;29.65;6.80;;;;;;;-3.62;100.00;99884.53;4354130;32;20365;-76
2022/01/23 06:32:00;;;;;;;22.85;6.60;;;;;;;-3.36;100.00;99927.81;4354556;32;20175;-76
2022/01/23 06:34:27;;;;;;;22.05;6.87;;;;;;;-3.45;100.00;99923.34;4355623;32;20365;-76
2022/01/23 06:36:54;;;;;;;21.25;6.22;;;;;;;-3.59;100.00;99890.38;4354420;32;20036;-76
2022/01/23 06:39:22;;;;;;;14.55;6.20;;;;;;;-3.54;100.00;99903.09;4354567;32;20031;-78
2022/01/23 06:41:49;;;;;;;24.60;6.72;;;;;;;-3.57;100.00;99892.88;4354486;32;20051;-76
2022/01/23 06:44:16;;;;;;;24.05;6.78;;;;;;;-3.33;100.00;99943.34;4354741;32;20035;-76
2022/01/23 06:46:43;;;;;;;19.35;7.47;;;;;;;-3.54;100.00;99901.31;4353753;32;20392;-75
2022/01/23 06:49:11;;;;;;;21.73;7.78;;;;;;;-3.28;100.00;99940.28;4355616;32;20066;-77
2022/01/23 06:51:38;;;;;;;23.05;6.25;;;;;;;-3.32;100.00;99938.88;4352158;32;20129;-79
2022/01/23 06:54:05;;;;;;;16.55;6.20;;;;;;;-3.56;100.00;99907.69;4355834;32;20345;-77
2022/01/23 06:56:32;;;;;;;26.65;7.53;;;;;;;-3.42;100.00;99928.34;4354120;32;20471;-76
2022/01/23 06:58:59;;;;;;;24.70;7.35;;;;;;;-3.26;100.00;99953.31;4355265;32;20422;-76
2022/01/23 07:01:25;;;;;;;18.95;6.70;;;;;;;-3.36;100.00;99942.78;4355073;32;20047;-75
2022/01/23 07:03:52;;;;;;;25.95;8.02;;;;;;;-3.53;100.00;99918.78;4352034;32;20474;-76
2022/01/23 07:06:21;;;;;;;17.95;7.10;;;;;;;-3.47;100.00;99914.78;4354445;32;20054;-77
2022/01/23 07:08:48;;;;;;;23.55;8.45;;;;;;;-3.23;100.00;99963.59;4355657;32;20079;-75
2022/01/23 07:11:15;;;;;;;27.75;7.75;;;;;;;-3.50;100.00;99923.75;4354826;32;20043;-76
2022/01/23 07:13:41;;;;;;;24.52;7.40;;;;;;;-3.46;100.00;99932.25;4352233;32;20479;-77
2022/01/23 07:16:08;;;;;;;21.30;8.45;;;;;;;-3.40;100.00;99931.66;4354311;32;20113;-75
2022/01/23 07:18:35;;;;;;;15.65;6.22;;;;;;;-3.12;100.00;99971.34;4355533;32;20077;-75
2022/01/23 07:21:03;;;;;;;16.77;6.12;;;;;;;-3.19;100.00;99973.72;4354242;32;20040;-76
2022/01/23 07:23:31;;;;;;;24.25;7.60;;;;;;;-3.01;100.00;99994.94;4355166;32;20036;-75
2022/01/23 07:25:59;;;;;;;18.90;6.25;;;;;;;-3.24;100.00;99961.91;4363208;32;20091;-75
2022/01/23 07:28:37;;;;;;;18.73;6.50;;;;;;;-3.19;100.00;99975.50;4349810;33;20090;-76
2022/01/23 07:31:06;;;;;;;25.85;6.43;;;;;;;-3.01;100.00;100010.75;4345998;32;20040;-75
2022/01/23 07:33:35;;;;;;;18.50;7.15;;;;;;;-3.01;100.00;100002.84;4354164;32;20492;-79
2022/01/23 07:36:04;;;;;;;20.40;7.20;;;;;;;-3.04;100.00;99997.00;4354283;32;20073;-75
2022/01/23 07:38:31;;;;;;;23.17;7.57;;;;;;;-3.19;100.00;99972.84;4354420;32;20040;-75
2022/01/23 07:40:58;;;;;;;23.48;7.82;;;;;;;-2.94;100.00;100014.47;4354250;32;20491;-74
2022/01/23 07:43:29;;;;;;;26.20;6.07;;;;;;;-2.96;100.00;100008.53;4354278;32;20396;-76
2022/01/23 07:46:05;;;;;;;19.98;6.72;;;;;;;-3.16;100.00;99985.75;4353822;32;20914;-75
2022/01/23 07:48:37;;;;;;;13.98;6.05;;;;;;;-3.12;100.00;99992.44;4357715;32;20040;-76
2022/01/23 07:51:05;;;;;;;11.55;5.68;;;;;;;-2.96;100.00;100024.31;4355494;32;20058;-79
2022/01/23 07:53:32;;;;;;;21.00;6.25;;;;;;;-3.21;100.00;99982.72;4355379;32;20097;-75
2022/01/23 07:56:02;;;;;;;25.77;7.30;;;;;;;-2.89;100.00;100039.59;4357965;32;20081;-75
2022/01/23 07:58:30;;;;;;;19.85;7.50;;;;;;;-2.90;100.00;100028.22;4356714;32;20073;-77
2022/01/23 08:00:58;;;;;;;28.55;8.43;;;;;;;-2.78;100.00;100042.09;4367305;32;20428;-77
2022/01/23 08:03:25;;;;;;;22.50;6.93;;;;;;;-2.74;100.00;100056.69;4355227;32;20044;-77
2022/01/23 08:05:52;;;;;;;31.00;9.73;;;;;;;-2.85;100.00;100030.44;4355180;32;20065;-78
2022/01/23 08:08:21;;;;;;;21.10;8.80;;;;;;;-2.72;100.00;100048.62;4356177;32;20205;-77
2022/01/23 08:10:49;;;;;;;22.95;7.87;;;;;;;-2.97;100.00;99998.97;4352883;32;20047;-76
2022/01/23 08:13:16;;;;;;;29.50;9.10;;;;;;;-2.64;100.00;100057.50;4355946;32;20035;-76
2022/01/23 08:15:43;;;;;;;38.85;9.95;;;;;;;-2.90;100.00;100016.84;4354573;32;20047;-76
2022/01/23 08:18:10;;;;;;;24.33;8.50;;;;;;;-2.70;100.00;100050.13;4356306;32;20085;-77
2022/01/23 08:20:36;;;;;;;26.45;9.77;;;;;;;-2.57;100.00;100070.94;4356261;32;20044;-77
2022/01/23 08:23:04;;;;;;;15.43;7.35;;;;;;;-3.00;100.00;99993.97;4355357;32;20048;-77
2022/01/23 08:25:32;;;;;;;28.77;10.40;;;;;;;-2.46;100.00;100067.34;4354916;32;20085;-79
2022/01/23 08:28:07;;;;;;;19.27;7.87;;;;;;;-2.39;100.00;100077.19;4355720;32;20110;-76
2022/01/23 08:30:34;;;;;;;20.98;8.15;;;;;;;-2.41;100.00;100070.38;4354035;32;20044;-78
2022/01/23 08:33:00;;;;;;;23.02;8.50;;;;;;;-2.44;100.00;100065.38;4355886;32;20032;-77
2022/01/23 08:35:28;;;;;;;33.20;10.13;;;;;;;-2.42;100.00;100063.47;4354933;32;20397;-81
2022/01/23 08:37:55;;;;;;;28.85;9.70;;;;;;;-2.72;100.00;100004.62;4357359;32;20055;-77
2022/01/23 08:40:34;;;;;;;23.42;8.93;;;;;;;-2.34;100.00;100079.41;4354731;32;20051;-77
2022/01/23 08:43:01;;;;;;;28.42;9.55;;;;;;;-2.24;100.00;100069.69;4356861;32;20031;-77
2022/01/23 08:45:27;;;;;;;21.00;10.30;;;;;;;-2.17;100.00;100077.03;4354133;32;20039;-78
2022/01/23 08:47:53;;;;;;;31.62;9.15;;;;;;;-2.24;100.00;100067.03;4357690;32;20040;-77
2022/01/23 08:50:20;;;;;;;25.98;9.15;;;;;;;-2.23;100.00;100084.53;4355742;32;20200;-77
2022/01/23 08:52:47;;;;;;;26.02;9.52;;;;;;;-2.24;100.00;100085.50;4354327;32;20135;-78
2022/01/23 08:55:13;;;;;;;28.12;9.95;;;;;;;-2.14;100.00;100088.13;4355971;32;20039;-80
2022/01/23 08:57:40;;;;;;;25.12;9.88;;;;;;;-2.17;100.00;100088.44;4355657;32;20070;-77
2022/01/23 09:00:07;;;;;;;16.77;7.80;;;;;;;-2.08;100.00;100107.84;4353863;32;20032;-77
2022/01/23 09:02:34;;;;;;;28.23;9.65;;;;;;;-2.03;100.00;100108.25;4356002;32;20188;-78
2022/01/23 09:05:01;;;;;;;23.08;9.48;;;;;;;-2.04;100.00;100112.72;4356508;32;20047;-78
2022/01/23 09:07:27;;;;;;;26.92;8.63;;;;;;;-2.06;100.00;100111.19;4353903;32;20070;-79
2022/01/23 09:10:01;;;;;;;29.17;9.25;;;;;;;-2.13;100.00;100113.56;4356231;32;20077;-75
2022/01/23 09:12:57;;;;;;;23.38;9.18;;;;;;;-2.06;100.00;100117.31;4356215;32;20039;-77
2022/01/23 09:15:24;;;;;;;28.92;9.90;;;;;;;-1.98;100.00;100124.50;4340623;33;20040;-78
2022/01/23 09:17:51;;;;;;;27.65;9.35;;;;;;;-2.20;100.00;100084.25;4341860;33;20052;-76
2022/01/23 09:20:17;;;;;;;45.92;11.12;;;;;;;-1.99;100.00;100127.28;4342026;33;20036;-76
2022/01/23 09:22:43;;;;;;;42.60;11.63;;;;;;;-2.05;100.00;100115.50;4341379;33;20362;-76
2022/01/23 09:25:10;;;;;;;36.47;9.77;;;;;;;-1.80;100.00;100139.59;4358951;32;20388;-77
2022/01/23 09:27:39;;;;;;;18.65;8.25;;;;;;;-1.85;100.00;100132.97;4365200;32;20048;-76
2022/01/23 09:30:16;;;;;;;23.87;9.88;;;;;;;-2.18;100.00;100086.75;4350732;32;20419;-77
2022/01/23 09:32:45;;;;;;;27.20;9.60;;;;;;;-1.84;100.00;100137.25;4354504;32;20056;-78
2022/01/23 09:35:11;;;;;;;25.83;8.77;;;;;;;-2.17;100.00;100069.12;4356653;32;20081;-78
2022/01/23 09:37:38;;;;;;;26.10;9.10;;;;;;;-1.80;100.00;100136.97;4362703;32;20062;-78
2022/01/23 09:40:05;;;;;;;22.23;7.87;;;;;;;-1.88;100.00;100135.87;4360134;32;20062;-76
2022/01/23 09:42:41;;;;;;;34.53;10.15;;;;;;;-2.14;100.00;100087.31;4356477;32;20065;-76
2022/01/23 09:45:11;;;;;;;27.80;9.88;;;;;;;-1.75;100.00;100129.47;4352122;32;20054;-77
2022/01/23 09:47:40;;;;;;;27.70;8.75;;;;;;;-1.70;100.00;100132.50;4355074;32;20054;-76
2022/01/23 09:50:15;;;;;;;29.42;10.70;;;;;;;-1.77;100.00;100120.84;4353450;32;20123;-77
2022/01/23 09:52:53;;;;;;;30.05;11.00;;;;;;;-1.74;100.00;100120.56;4352107;32;20043;-78
2022/01/23 09:55:21;;;;;;;33.97;10.65;;;;;;;-1.63;100.00;100125.66;4353226;32;20078;-76
2022/01/23 09:57:49;;;;;;;30.58;10.57;;;;;;;-1.96;100.00;100085.63;4349817;32;20056;-76
2022/01/23 10:00:21;;;;;;;28.35;11.07;;;;;;;-1.62;100.00;100127.34;4351911;32;20193;-76
2022/01/23 10:02:50;;;;;;;27.27;8.95;;;;;;;-1.63;100.00;100123.03;4351183;32;20112;-77
2022/01/23 10:05:27;;;;;;;27.98;10.95;;;;;;;-1.54;100.00;100122.16;4353439;32;20082;-76
2022/01/23 10:07:54;;;;;;;32.45;12.18;;;;;;;-1.69;100.00;100099.81;4354156;32;20052;-77
2022/01/23 10:10:31;;;;;;;31.02;11.73;;;;;;;-1.66;100.00;100086.34;4355830;32;20044;-77
2022/01/23 10:12:59;;;;;;;32.60;11.35;;;;;;;-1.34;100.00;100127.38;4352215;32;20069;-77
2022/01/23 10:15:30;;;;;;;28.38;10.15;;;;;;;-1.39;100.00;100113.78;4353864;32;20482;-77
2022/01/23 10:17:57;;;;;;;29.75;10.57;;;;;;;-1.37;100.00;100127.66;4354200;32;20055;-76
2022/01/23 10:20:25;;;;;;;37.65;10.90;;;;;;;-1.40;100.00;100127.97;4351854;32;20051;-78
2022/01/23 10:22:54;;;;;;;44.72;13.60;;;;;;;-1.40;100.00;100122.69;4353871;32;20055;-77
2022/01/23 10:25:24;;;;;;;26.25;11.02;;;;;;;-1.57;100.00;100080.19;4365337;32;20412;-77
2022/01/23 10:28:03;;;;;;;41.13;11.15;;;;;;;-1.33;100.00;100111.37;4355431;32;20044;-76
2022/01/23 10:30:41;;;;;;;35.88;13.18;;;;;;;-1.33;100.00;100118.47;4352596;32;20071;-76
2022/01/23 10:33:14;;;;;;;48.55;15.25;;;;;;;-1.22;100.00;100115.63;4355862;32;20044;-76
2022/01/23 10:35:57;;;;;;;;;;;;;;;-1.41;100.00;100084.03;4356185;32;20066;-76
2022/01/23 10:38:32;;;;;;;39.67;12.37;;;;;;;-1.33;100.00;100131.69;4355604;32;20302;-76
2022/01/23 10:50:05;;;;;;;48.87;14.93;;;;;;;-1.11;100.00;100096.94;4355270;32;20118;-77
2022/01/23 10:52:38;;;;;;;52.40;16.62;;;;;;;-0.89;100.00;100126.59;4366535;32;20061;-77
2022/01/23 10:55:06;;;;;;;55.75;15.05;;;;;;;-1.16;100.00;100083.34;4355900;32;20436;-76
2022/01/23 10:57:35;;;;;;;39.35;13.50;;;;;;;-0.86;100.00;100131.59;4355701;32;20109;-76
2022/01/23 11:00:05;;;;;;;45.55;14.20;;;;;;;-1.12;100.00;100083.88;4354229;32;20377;-77
2022/01/23 11:02:32;;;;;;;54.97;18.52;;;;;;;-1.08;100.00;100116.16;4355907;32;20039;-76
2022/01/23 11:05:04;;;;;;;43.38;15.95;;;;;;;-0.92;100.00;100140.12;4355738;32;20062;-76
2022/01/23 11:07:33;;;;;;;39.80;12.65;;;;;;;-1.13;100.00;100106.84;4354880;32;20089;-76
2022/01/23 11:10:06;;;;;;;33.60;13.85;;;;;;;-0.97;100.00;100147.66;4354351;32;20087;-77
2022/01/23 11:18:09;;;;;;;31.23;11.75;;;;;;;-0.92;100.00;100148.87;4355663;32;20051;-76
2022/01/23 11:20:44;;;;;;;36.35;10.85;;;;;;;-0.97;100.00;100129.16;4354454;32;20057;-76
2022/01/23 11:23:17;;;;;;;38.83;12.77;;;;;;;-0.88;100.00;100149.41;4352854;32;20398;-78
2022/01/23 11:25:51;;;;;;;39.13;12.40;;;;;;;-0.88;100.00;100144.12;4354335;32;20077;-76
2022/01/23 11:28:19;;;;;;;34.08;12.48;;;;;;;-0.89;100.00;100125.75;4354550;32;20369;-76
2022/01/23 11:30:48;;;;;;;23.40;10.10;;;;;;;-0.65;100.00;100149.00;4354950;32;20455;-76
2022/01/23 11:33:18;;;;;;;40.75;11.60;;;;;;;-0.97;100.00;100131.81;4363848;32;20032;-76
2022/01/23 11:35:45;;;;;;;41.42;11.25;;;;;;;-0.93;100.00;100154.31;4355407;32;20066;-76
2022/01/23 11:38:16;;;;;;;37.55;12.18;;;;;;;-0.91;100.00;100154.97;4353810;32;20081;-76
2022/01/23 11:54:44;;;;;;;29.98;10.65;;;;;;;-0.70;100.00;100140.66;4355419;32;20040;-76
2022/01/23 11:57:36;;;;;;;36.85;10.85;;;;;;;-0.57;100.00;100135.87;4355313;32;20035;-76
2022/01/23 12:00:11;;;;;;;20.40;9.68;;;;;;;-0.42;100.00;100144.91;4365694;32;20381;-76
2022/01/23 12:02:42;;;;;;;38.42;12.43;;;;;;;-0.35;100.00;100144.31;4355678;32;20082;-76
2022/01/23 12:05:12;;;;;;;28.52;8.50;;;;;;;-0.30;100.00;100149.97;4352590;32;20058;-77
2022/01/23 12:07:41;;;;;;;25.98;9.48;;;;;;;-0.37;100.00;100150.62;4355417;32;20054;-76
2022/01/23 12:10:18;;;;;;;25.80;10.70;;;;;;;-0.61;100.00;100108.03;4355099;32;20381;-76
2022/01/23 12:12:48;;;;;;;24.73;9.13;;;;;;;-0.42;100.00;100144.91;4354464;33;20402;-79
2022/01/23 12:18:15;;;;;;;40.40;14.68;;;;;;;-0.64;100.00;100113.62;4353842;32;20065;-77
2022/01/23 12:20:47;;;;;;;30.85;9.80;;;;;;;-0.35;100.00;100137.22;4352397;32;20031;-78
2022/01/23 12:23:15;;;;;;;29.27;9.77;;;;;;;-0.16;100.00;100157.41;4353767;32;20432;-77
2022/01/23 12:25:47;;;;;;;20.80;8.75;;;;;;;-0.07;100.00;100151.19;4353803;32;20428;-77
2022/01/23 12:28:14;;;;;;;21.02;8.63;;;;;;;-0.22;100.00;100116.50;4351252;32;20089;-78
2022/01/23 12:30:43;;;;;;;33.40;11.10;;;;;;;-0.09;100.00;100161.09;4353996;32;20102;-78
2022/01/23 12:33:18;;;;;;;33.70;10.02;;;;;;;-0.27;100.00;100117.91;4354642;32;20535;-78
2022/01/23 12:35:50;;;;;;;21.45;8.07;;;;;;;-0.25;100.00;100118.63;4355890;32;20057;-77
2022/01/23 12:38:18;;;;;;;21.12;9.32;;;;;;;-0.17;100.00;100120.50;4355521;32;20463;-77
2022/01/23 12:40:48;;;;;;;20.12;7.40;;;;;;;-0.15;100.00;100114.06;4356640;32;20066;-77
2022/01/23 12:43:20;;;;;;;25.88;9.45;;;;;;;-0.03;100.00;100112.84;4355729;32;20435;-78
2022/01/23 12:45:55;;;;;;;25.88;9.65;;;;;;;0.16;100.00;100138.28;4355422;32;20044;-77
2022/01/23 12:48:25;;;;;;;22.80;9.52;;;;;;;0.29;100.00;100147.66;4356268;32;20355;-72
2022/01/23 12:51:12;;;;;;;19.58;8.13;;;;;;;0.30;100.00;100176.66;4354410;32;20052;-72
2022/01/23 12:53:47;;;;;;;25.25;7.95;;;;;;;0.34;100.00;100172.69;4351167;32;20081;-72
2022/01/23 12:56:24;;;;;;;21.65;9.02;;;;;;;0.11;100.00;100145.87;4356301;32;20032;-72
2022/01/23 12:58:52;;;;;;;16.52;7.60;;;;;;;-0.01;100.00;100136.50;4356655;32;20083;-72
2022/01/23 13:01:25;;;;;;;19.48;8.10;;;;;;;0.19;100.00;100184.81;4354384;32;20031;-72
2022/01/23 13:03:52;;;;;;;32.35;10.25;;;;;;;0.14;100.00;100181.81;4368492;32;20451;-73
2022/01/23 13:06:38;;;;;;;24.10;8.68;;;;;;;-0.16;100.00;100149.47;4356953;32;20369;-73
2022/01/23 13:32:22;;;;;;;29.77;9.90;;;;;;;-0.26;100.00;100214.88;4353598;32;20095;-75
2022/01/23 13:34:50;;;;;;;27.83;9.75;;;;;;;-0.13;100.00;100228.56;4354645;32;20031;-76
2022/01/23 13:37:22;;;;;;;28.12;10.30;;;;;;;-0.21;100.00;100237.28;4354791;32;20063;-76
2022/01/23 13:40:01;;;;;;;27.83;9.60;;;;;;;-0.17;100.00;100226.41;4352691;32;20095;-77
2022/01/23 14:02:27;;;;;;;25.92;10.68;;;;;;;-0.11;100.00;100210.75;4296001;33;20049;-75
2022/01/23 14:05:07;;;;;;;40.90;12.55;;;;;;;-0.04;100.00;100222.38;4295688;33;20076;-74
2022/01/23 14:07:34;;;;;;;26.87;11.35;;;;;;;-0.30;100.00;100205.56;4294529;33;20037;-75
2022/01/23 14:10:11;;;;;;;34.60;12.45;;;;;;;-0.43;100.00;100185.63;4296584;33;20425;-75
2022/01/23 14:12:37;;;;;;;33.80;13.75;;;;;;;-0.21;100.00;100237.28;4313172;33;20037;-75
2022/01/23 14:15:13;;;;;;;34.33;12.15;;;;;;;-0.17;100.00;100226.41;4305903;33;20067;-80
2022/01/23 14:17:42;;;;;;;40.28;12.10;;;;;;;-0.41;100.00;100188.94;4314538;33;20049;-73
2022/01/23 14:20:14;;;;;;;42.70;14.40;;;;;;;-0.12;100.00;100226.78;4312912;33;20040;-75
2022/01/23 14:22:47;;;;;;;33.38;10.05;;;;;;;-0.56;100.00;100169.25;4317612;33;21437;-74
2022/01/23 14:25:28;;;;;;;32.78;11.38;;;;;;;-0.28;100.00;100224.78;4310147;33;20074;-73
2022/01/23 14:28:04;;;;;;;40.85;14.32;;;;;;;-0.44;100.00;100226.28;4341470;32;20154;-73
2022/01/23 14:30:32;;;;;;;43.75;14.02;;;;;;;-0.30;100.00;100243.47;4355900;32;20038;-74
2022/01/23 14:33:11;;;;;;;44.53;15.45;;;;;;;-0.39;100.00;100218.72;4361295;32;20047;-73
2022/01/23 14:35:38;;;;;;;45.50;16.98;;;;;;;-0.52;100.00;100206.84;4361341;32;20052;-74
2022/01/23 14:38:14;;;;;;;46.63;14.82;;;;;;;-0.53;100.00;100205.16;4360775;32;20055;-77
2022/01/23 14:40:59;;;;;;;55.97;17.45;;;;;;;-0.50;100.00;100216.28;4349475;32;20087;-75
2022/01/23 14:43:31;;;;;;;43.00;14.52;;;;;;;-0.33;100.00;100242.94;4360570;32;20040;-74
2022/01/23 14:46:04;;;;;;;47.10;14.93;;;;;;;-0.33;100.00;100253.53;4347669;32;20048;-74
2022/01/23 14:48:39;;;;;;;39.50;13.45;;;;;;;-0.44;100.00;100252.75;4352099;32;20067;-74
2022/01/23 14:51:07;;;;;;;54.22;18.37;;;;;;;-0.63;100.00;100231.69;4347500;32;20035;-74
2022/01/23 14:53:36;;;;;;;47.35;17.70;;;;;;;-0.49;100.00;100239.12;4359630;32;20065;-74
2022/01/23 14:56:06;;;;;;;38.42;13.77;;;;;;;-0.50;100.00;100253.31;4347206;32;20076;-74
2022/01/23 14:58:34;;;;;;;46.20;14.15;;;;;;;-0.77;100.00;100215.31;4364781;32;20065;-74
2022/01/23 15:01:02;;;;;;;32.33;13.70;;;;;;;-0.60;100.00;100257.84;4361907;32;20047;-79
2022/01/23 15:03:30;;;;;;;43.85;14.45;;;;;;;-0.84;100.00;100219.53;4363302;32;20043;-78
2022/01/23 15:06:00;;;;;;;38.83;14.57;;;;;;;-0.86;100.00;100224.16;4355726;32;20085;-79
2022/01/23 15:08:27;;;;;;;60.17;22.35;;;;;;;-0.69;100.00;100258.72;4341132;33;20373;-79
2022/01/23 15:10:56;;;;;;;34.85;16.67;;;;;;;-1.05;100.00;100206.56;4341570;33;20020;-81
2022/01/23 15:13:24;;;;;;;37.20;14.73;;;;;;;-0.76;100.00;100269.88;4352987;32;20052;-80
2022/01/23 15:15:51;;;;;;;30.65;11.02;;;;;;;-0.80;100.00;100265.88;4361483;32;20391;-79
2022/01/23 15:18:18;;;;;;;41.08;13.15;;;;;;;-1.04;100.00;100228.53;4370220;32;20526;-80
2022/01/23 15:20:46;;;;;;;41.47;14.25;;;;;;;-1.04;100.00;100223.25;4369921;32;20031;-79
2022/01/23 15:23:14;;;;;;;42.50;14.38;;;;;;;-1.04;100.00;100228.53;4367543;32;20400;-79